sensor_id;sensor_type;location;lat;lon;timestamp;P1;durP1;ratioP1;P2;durP2;ratioP2
2023;SDS011;1016;48.770;9.154;2023-06-22T00:01:09;27.33;;;8.80;;
2023;SDS011;1016;48.770;9.154;2023-06-22T00:03:34;26.67;;;8.27;;
2023;SDS011;1016;48.770;9.154;2023-06-22T00:06:00;26.80;;;7.77;;
2023;SDS011;1016;48.770;9.154;2023-06-22T00:08:25;27.93;;;8.30;;
2023;SDS011;1016;48.770;9.154;2023-06-22T00:10:51;27.47;;;8.40;;
2023;SDS011;1016;48.770;9.154;2023-06-22T00:13:16;27.97;;;8.20;;
2023;SDS011;1016;48.770;9.154;2023-06-22T00:15:43;26.50;;;8.17;;
2023;SDS011;1016;48.770;9.154;2023-06-22T00:18:09;27.37;;;8.33;;
2023;SDS011;1016;48.770;9.154;2023-06-22T00:20:35;28.73;;;8.57;;
2023;SDS011;1016;48.770;9.154;2023-06-22T00:23:05;26.00;;;7.77;;
2023;SDS011;1016;48.770;9.154;2023-06-22T00:25:39;28.37;;;8.80;;
2023;SDS011;1016;48.770;9.154;2023-06-22T00:28:05;28.93;;;8.57;;
2023;SDS011;1016;48.770;9.154;2023-06-22T00:30:32;28.80;;;9.27;;
2023;SDS011;1016;48.770;9.154;2023-06-22T00:32:58;28.20;;;8.60;;
2023;SDS011;1016;48.770;9.154;2023-06-22T00:35:24;26.60;;;8.50;;
2023;SDS011;1016;48.770;9.154;2023-06-22T00:37:56;26.90;;;8.50;;
2023;SDS011;1016;48.770;9.154;2023-06-22T00:40:25;25.50;;;8.20;;
2023;SDS011;1016;48.770;9.154;2023-06-22T00:42:57;27.13;;;8.50;;
2023;SDS011;1016;48.770;9.154;2023-06-22T00:45:24;26.37;;;8.37;;
2023;SDS011;1016;48.770;9.154;2023-06-22T00:47:50;26.70;;;8.27;;
2023;SDS011;1016;48.770;9.154;2023-06-22T00:50:23;28.70;;;8.40;;
2023;SDS011;1016;48.770;9.154;2023-06-22T00:52:52;28.58;;;9.38;;
2023;SDS011;1016;48.770;9.154;2023-06-22T00:55:21;26.70;;;9.40;;
2023;SDS011;1016;48.770;9.154;2023-06-22T00:57:47;27.90;;;8.67;;
2023;SDS011;1016;48.770;9.154;2023-06-22T01:00:14;26.13;;;8.20;;
2023;SDS011;1016;48.770;9.154;2023-06-22T01:02:43;27.50;;;8.30;;
2023;SDS011;1016;48.770;9.154;2023-06-22T01:05:14;27.87;;;9.07;;
2023;SDS011;1016;48.770;9.154;2023-06-22T01:07:42;28.57;;;8.47;;
2023;SDS011;1016;48.770;9.154;2023-06-22T01:16:39;27.20;;;8.10;;
2023;SDS011;1016;48.770;9.154;2023-06-22T01:19:20;26.10;;;8.27;;
2023;SDS011;1016;48.770;9.154;2023-06-22T01:22:11;27.83;;;8.07;;
2023;SDS011;1016;48.770;9.154;2023-06-22T01:30:25;27.40;;;8.13;;
2023;SDS011;1016;48.770;9.154;2023-06-22T01:32:53;28.63;;;7.70;;
2023;SDS011;1016;48.770;9.154;2023-06-22T01:35:19;25.90;;;7.77;;
2023;SDS011;1016;48.770;9.154;2023-06-22T01:37:46;28.00;;;8.23;;
2023;SDS011;1016;48.770;9.154;2023-06-22T01:40:12;26.30;;;7.80;;
2023;SDS011;1016;48.770;9.154;2023-06-22T01:42:39;27.70;;;8.30;;
2023;SDS011;1016;48.770;9.154;2023-06-22T01:45:06;29.07;;;8.20;;
2023;SDS011;1016;48.770;9.154;2023-06-22T01:47:32;26.33;;;8.27;;
2023;SDS011;1016;48.770;9.154;2023-06-22T01:49:59;26.70;;;7.80;;
2023;SDS011;1016;48.770;9.154;2023-06-22T01:52:24;27.60;;;8.70;;
2023;SDS011;1016;48.770;9.154;2023-06-22T01:54:50;26.87;;;7.43;;
2023;SDS011;1016;48.770;9.154;2023-06-22T01:57:16;26.20;;;8.43;;
2023;SDS011;1016;48.770;9.154;2023-06-22T01:59:59;27.93;;;8.27;;
2023;SDS011;1016;48.770;9.154;2023-06-22T02:02:39;28.30;;;8.80;;
2023;SDS011;1016;48.770;9.154;2023-06-22T02:05:26;28.83;;;7.80;;
2023;SDS011;1016;48.770;9.154;2023-06-22T02:08:00;28.10;;;9.20;;
2023;SDS011;1016;48.770;9.154;2023-06-22T02:10:32;27.53;;;8.80;;
2023;SDS011;1016;48.770;9.154;2023-06-22T02:13:00;26.90;;;8.03;;
2023;SDS011;1016;48.770;9.154;2023-06-22T02:15:27;32.03;;;9.43;;
2023;SDS011;1016;48.770;9.154;2023-06-22T02:17:53;28.93;;;9.30;;
2023;SDS011;1016;48.770;9.154;2023-06-22T02:20:19;27.67;;;8.87;;
2023;SDS011;1016;48.770;9.154;2023-06-22T02:22:45;28.77;;;8.90;;
2023;SDS011;1016;48.770;9.154;2023-06-22T02:25:10;27.20;;;8.67;;
2023;SDS011;1016;48.770;9.154;2023-06-22T02:27:36;26.77;;;8.30;;
2023;SDS011;1016;48.770;9.154;2023-06-22T02:30:05;27.33;;;8.60;;
2023;SDS011;1016;48.770;9.154;2023-06-22T02:32:32;27.57;;;8.27;;
2023;SDS011;1016;48.770;9.154;2023-06-22T02:34:59;28.37;;;8.63;;
2023;SDS011;1016;48.770;9.154;2023-06-22T02:37:24;28.30;;;8.90;;
2023;SDS011;1016;48.770;9.154;2023-06-22T02:39:50;27.43;;;8.80;;
2023;SDS011;1016;48.770;9.154;2023-06-22T02:42:15;28.10;;;8.90;;
2023;SDS011;1016;48.770;9.154;2023-06-22T02:44:45;26.80;;;8.73;;
2023;SDS011;1016;48.770;9.154;2023-06-22T02:47:11;27.77;;;9.57;;
2023;SDS011;1016;48.770;9.154;2023-06-22T02:49:36;28.23;;;8.70;;
2023;SDS011;1016;48.770;9.154;2023-06-22T02:52:02;27.30;;;8.80;;
2023;SDS011;1016;48.770;9.154;2023-06-22T02:54:27;27.53;;;8.43;;
2023;SDS011;1016;48.770;9.154;2023-06-22T02:56:53;27.70;;;9.10;;
2023;SDS011;1016;48.770;9.154;2023-06-22T02:59:18;28.40;;;9.83;;
2023;SDS011;1016;48.770;9.154;2023-06-22T03:01:49;29.00;;;9.80;;
2023;SDS011;1016;48.770;9.154;2023-06-22T03:04:14;29.80;;;9.93;;
2023;SDS011;1016;48.770;9.154;2023-06-22T03:06:40;31.47;;;10.20;;
2023;SDS011;1016;48.770;9.154;2023-06-22T03:09:06;31.37;;;9.87;;
2023;SDS011;1016;48.770;9.154;2023-06-22T03:11:32;28.90;;;10.17;;
2023;SDS011;1016;48.770;9.154;2023-06-22T03:13:59;30.37;;;10.20;;
2023;SDS011;1016;48.770;9.154;2023-06-22T03:16:25;27.73;;;10.60;;
2023;SDS011;1016;48.770;9.154;2023-06-22T03:18:51;28.23;;;9.70;;
2023;SDS011;1016;48.770;9.154;2023-06-22T03:21:18;27.37;;;9.23;;
2023;SDS011;1016;48.770;9.154;2023-06-22T03:23:44;32.80;;;9.93;;
2023;SDS011;1016;48.770;9.154;2023-06-22T03:26:10;28.10;;;9.70;;
2023;SDS011;1016;48.770;9.154;2023-06-22T03:28:35;28.50;;;10.47;;
2023;SDS011;1016;48.770;9.154;2023-06-22T03:31:03;27.60;;;9.80;;
2023;SDS011;1016;48.770;9.154;2023-06-22T03:33:29;29.70;;;10.73;;
2023;SDS011;1016;48.770;9.154;2023-06-22T03:35:54;28.63;;;9.83;;
2023;SDS011;1016;48.770;9.154;2023-06-22T03:38:20;27.73;;;9.13;;
2023;SDS011;1016;48.770;9.154;2023-06-22T03:40:45;28.83;;;10.27;;
2023;SDS011;1016;48.770;9.154;2023-06-22T03:43:11;26.53;;;9.57;;
2023;SDS011;1016;48.770;9.154;2023-06-22T03:45:37;30.90;;;9.73;;
2023;SDS011;1016;48.770;9.154;2023-06-22T03:48:02;29.07;;;9.90;;
2023;SDS011;1016;48.770;9.154;2023-06-22T03:50:28;27.03;;;9.67;;
2023;SDS011;1016;48.770;9.154;2023-06-22T03:52:54;27.57;;;9.70;;
2023;SDS011;1016;48.770;9.154;2023-06-22T03:55:20;29.83;;;9.43;;
2023;SDS011;1016;48.770;9.154;2023-06-22T03:57:46;27.60;;;10.00;;
2023;SDS011;1016;48.770;9.154;2023-06-22T04:00:11;27.27;;;9.10;;
2023;SDS011;1016;48.770;9.154;2023-06-22T04:02:37;29.63;;;9.77;;
2023;SDS011;1016;48.770;9.154;2023-06-22T04:05:03;27.60;;;9.70;;
2023;SDS011;1016;48.770;9.154;2023-06-22T04:07:29;28.97;;;9.33;;
2023;SDS011;1016;48.770;9.154;2023-06-22T04:09:55;27.73;;;9.33;;
2023;SDS011;1016;48.770;9.154;2023-06-22T04:12:20;28.03;;;9.83;;
2023;SDS011;1016;48.770;9.154;2023-06-22T04:14:46;28.17;;;9.80;;
2023;SDS011;1016;48.770;9.154;2023-06-22T04:17:11;28.77;;;9.70;;
2023;SDS011;1016;48.770;9.154;2023-06-22T04:19:39;28.33;;;9.57;;
2023;SDS011;1016;48.770;9.154;2023-06-22T04:22:04;30.07;;;9.40;;
2023;SDS011;1016;48.770;9.154;2023-06-22T04:24:32;29.10;;;10.17;;
2023;SDS011;1016;48.770;9.154;2023-06-22T04:26:57;30.73;;;9.10;;
2023;SDS011;1016;48.770;9.154;2023-06-22T04:29:27;29.10;;;9.27;;
2023;SDS011;1016;48.770;9.154;2023-06-22T04:31:57;27.67;;;9.40;;
2023;SDS011;1016;48.770;9.154;2023-06-22T04:34:23;28.87;;;9.63;;
2023;SDS011;1016;48.770;9.154;2023-06-22T04:36:51;28.07;;;9.90;;
2023;SDS011;1016;48.770;9.154;2023-06-22T04:39:17;29.87;;;9.90;;
2023;SDS011;1016;48.770;9.154;2023-06-22T04:41:43;28.17;;;9.13;;
2023;SDS011;1016;48.770;9.154;2023-06-22T04:44:10;27.30;;;8.80;;
2023;SDS011;1016;48.770;9.154;2023-06-22T04:46:58;27.27;;;9.60;;
2023;SDS011;1016;48.770;9.154;2023-06-22T04:49:33;29.93;;;10.50;;
2023;SDS011;1016;48.770;9.154;2023-06-22T04:52:05;30.37;;;11.00;;
2023;SDS011;1016;48.770;9.154;2023-06-22T04:54:32;28.10;;;9.50;;
2023;SDS011;1016;48.770;9.154;2023-06-22T04:56:59;30.10;;;10.67;;
2023;SDS011;1016;48.770;9.154;2023-06-22T04:59:26;29.83;;;10.83;;
2023;SDS011;1016;48.770;9.154;2023-06-22T05:01:55;28.73;;;10.00;;
2023;SDS011;1016;48.770;9.154;2023-06-22T05:04:26;30.90;;;10.30;;
2023;SDS011;1016;48.770;9.154;2023-06-22T05:07:00;30.07;;;10.70;;
2023;SDS011;1016;48.770;9.154;2023-06-22T05:09:27;28.97;;;10.80;;
2023;SDS011;1016;48.770;9.154;2023-06-22T05:11:52;29.10;;;10.20;;
2023;SDS011;1016;48.770;9.154;2023-06-22T05:14:18;30.20;;;9.80;;
2023;SDS011;1016;48.770;9.154;2023-06-22T05:16:44;29.20;;;11.10;;
2023;SDS011;1016;48.770;9.154;2023-06-22T05:19:10;29.20;;;10.20;;
2023;SDS011;1016;48.770;9.154;2023-06-22T05:21:36;29.30;;;10.43;;
2023;SDS011;1016;48.770;9.154;2023-06-22T05:24:02;28.67;;;9.93;;
2023;SDS011;1016;48.770;9.154;2023-06-22T05:26:28;32.10;;;10.63;;
2023;SDS011;1016;48.770;9.154;2023-06-22T05:28:55;31.23;;;10.87;;
2023;SDS011;1016;48.770;9.154;2023-06-22T05:31:20;30.73;;;9.90;;
2023;SDS011;1016;48.770;9.154;2023-06-22T05:33:46;33.63;;;11.00;;
2023;SDS011;1016;48.770;9.154;2023-06-22T05:36:13;29.70;;;10.27;;
2023;SDS011;1016;48.770;9.154;2023-06-22T05:38:39;31.07;;;9.93;;
2023;SDS011;1016;48.770;9.154;2023-06-22T05:41:05;27.93;;;9.13;;
2023;SDS011;1016;48.770;9.154;2023-06-22T05:43:31;27.20;;;8.83;;
2023;SDS011;1016;48.770;9.154;2023-06-22T05:45:57;28.40;;;9.00;;
2023;SDS011;1016;48.770;9.154;2023-06-22T05:48:23;29.67;;;10.20;;
2023;SDS011;1016;48.770;9.154;2023-06-22T05:50:50;31.50;;;9.83;;
2023;SDS011;1016;48.770;9.154;2023-06-22T05:53:15;29.97;;;9.87;;
2023;SDS011;1016;48.770;9.154;2023-06-22T05:55:41;30.57;;;10.77;;
2023;SDS011;1016;48.770;9.154;2023-06-22T05:58:07;29.95;;;10.38;;
2023;SDS011;1016;48.770;9.154;2023-06-22T06:00:33;29.10;;;10.27;;
2023;SDS011;1016;48.770;9.154;2023-06-22T06:02:59;29.90;;;9.53;;
2023;SDS011;1016;48.770;9.154;2023-06-22T06:05:29;29.07;;;9.90;;
2023;SDS011;1016;48.770;9.154;2023-06-22T06:07:55;30.37;;;9.20;;
2023;SDS011;1016;48.770;9.154;2023-06-22T06:10:21;32.17;;;8.83;;
2023;SDS011;1016;48.770;9.154;2023-06-22T06:12:46;28.88;;;9.00;;
2023;SDS011;1016;48.770;9.154;2023-06-22T06:15:12;26.83;;;9.20;;
2023;SDS011;1016;48.770;9.154;2023-06-22T06:17:50;31.23;;;9.20;;
2023;SDS011;1016;48.770;9.154;2023-06-22T06:20:18;28.30;;;8.50;;
2023;SDS011;1016;48.770;9.154;2023-06-22T06:22:45;29.00;;;8.57;;
2023;SDS011;1016;48.770;9.154;2023-06-22T06:25:11;30.20;;;9.23;;
2023;SDS011;1016;48.770;9.154;2023-06-22T06:27:41;29.65;;;9.45;;
2023;SDS011;1016;48.770;9.154;2023-06-22T06:30:11;28.77;;;9.57;;
2023;SDS011;1016;48.770;9.154;2023-06-22T06:32:37;28.42;;;9.00;;
2023;SDS011;1016;48.770;9.154;2023-06-22T06:35:07;31.50;;;9.05;;
2023;SDS011;1016;48.770;9.154;2023-06-22T06:37:41;27.80;;;9.07;;
2023;SDS011;1016;48.770;9.154;2023-06-22T06:40:08;29.00;;;9.25;;
2023;SDS011;1016;48.770;9.154;2023-06-22T06:42:38;28.83;;;8.32;;
2023;SDS011;1016;48.770;9.154;2023-06-22T06:45:07;29.23;;;8.75;;
2023;SDS011;1016;48.770;9.154;2023-06-22T06:47:33;30.00;;;9.10;;
2023;SDS011;1016;48.770;9.154;2023-06-22T06:49:59;27.10;;;8.65;;
2023;SDS011;1016;48.770;9.154;2023-06-22T06:52:24;28.37;;;8.83;;
2023;SDS011;1016;48.770;9.154;2023-06-22T06:54:50;29.35;;;9.18;;
2023;SDS011;1016;48.770;9.154;2023-06-22T06:57:17;28.60;;;8.75;;
2023;SDS011;1016;48.770;9.154;2023-06-22T06:59:43;28.60;;;9.38;;
2023;SDS011;1016;48.770;9.154;2023-06-22T07:02:09;28.27;;;8.50;;
2023;SDS011;1016;48.770;9.154;2023-06-22T07:04:34;29.13;;;8.40;;
2023;SDS011;1016;48.770;9.154;2023-06-22T07:07:00;29.53;;;9.60;;
2023;SDS011;1016;48.770;9.154;2023-06-22T07:09:26;28.20;;;8.65;;
2023;SDS011;1016;48.770;9.154;2023-06-22T07:11:52;28.92;;;8.70;;
2023;SDS011;1016;48.770;9.154;2023-06-22T07:14:17;29.30;;;10.60;;
2023;SDS011;1016;48.770;9.154;2023-06-22T07:16:43;26.80;;;7.77;;
2023;SDS011;1016;48.770;9.154;2023-06-22T07:19:10;29.07;;;8.27;;
2023;SDS011;1016;48.770;9.154;2023-06-22T07:21:39;28.70;;;8.50;;
2023;SDS011;1016;48.770;9.154;2023-06-22T07:24:06;28.27;;;8.10;;
2023;SDS011;1016;48.770;9.154;2023-06-22T07:26:32;26.95;;;7.63;;
2023;SDS011;1016;48.770;9.154;2023-06-22T07:28:58;27.20;;;7.22;;
2023;SDS011;1016;48.770;9.154;2023-06-22T07:31:24;28.00;;;8.23;;
2023;SDS011;1016;48.770;9.154;2023-06-22T07:33:50;27.70;;;7.47;;
2023;SDS011;1016;48.770;9.154;2023-06-22T07:36:16;28.60;;;7.70;;
2023;SDS011;1016;48.770;9.154;2023-06-22T07:38:42;28.80;;;7.47;;
2023;SDS011;1016;48.770;9.154;2023-06-22T07:41:08;27.93;;;7.80;;
2023;SDS011;1016;48.770;9.154;2023-06-22T07:43:34;27.42;;;8.18;;
2023;SDS011;1016;48.770;9.154;2023-06-22T07:46:01;27.30;;;8.00;;
2023;SDS011;1016;48.770;9.154;2023-06-22T07:48:28;28.48;;;7.80;;
2023;SDS011;1016;48.770;9.154;2023-06-22T07:50:53;26.23;;;7.20;;
2023;SDS011;1016;48.770;9.154;2023-06-22T07:53:19;26.67;;;7.20;;
2023;SDS011;1016;48.770;9.154;2023-06-22T07:55:46;29.15;;;8.00;;
2023;SDS011;1016;48.770;9.154;2023-06-22T07:58:12;28.40;;;7.80;;
2023;SDS011;1016;48.770;9.154;2023-06-22T08:00:38;27.05;;;7.70;;
2023;SDS011;1016;48.770;9.154;2023-06-22T08:03:03;26.25;;;6.80;;
2023;SDS011;1016;48.770;9.154;2023-06-22T08:05:30;26.80;;;7.40;;
2023;SDS011;1016;48.770;9.154;2023-06-22T08:07:55;26.80;;;7.10;;
2023;SDS011;1016;48.770;9.154;2023-06-22T08:10:21;27.15;;;6.50;;
2023;SDS011;1016;48.770;9.154;2023-06-22T08:12:47;27.87;;;7.63;;
2023;SDS011;1016;48.770;9.154;2023-06-22T08:15:12;27.17;;;7.20;;
2023;SDS011;1016;48.770;9.154;2023-06-22T08:17:38;27.00;;;6.80;;
2023;SDS011;1016;48.770;9.154;2023-06-22T08:20:05;26.80;;;7.00;;
2023;SDS011;1016;48.770;9.154;2023-06-22T08:22:38;26.85;;;7.10;;
2023;SDS011;1016;48.770;9.154;2023-06-22T08:25:04;26.77;;;6.70;;
2023;SDS011;1016;48.770;9.154;2023-06-22T08:27:30;26.07;;;6.77;;
2023;SDS011;1016;48.770;9.154;2023-06-22T08:29:59;29.70;;;7.10;;
2023;SDS011;1016;48.770;9.154;2023-06-22T08:32:25;27.00;;;6.80;;
2023;SDS011;1016;48.770;9.154;2023-06-22T08:34:52;27.80;;;7.30;;
2023;SDS011;1016;48.770;9.154;2023-06-22T08:37:19;27.58;;;7.10;;
2023;SDS011;1016;48.770;9.154;2023-06-22T08:39:45;27.00;;;6.70;;
2023;SDS011;1016;48.770;9.154;2023-06-22T08:42:11;28.13;;;7.28;;
2023;SDS011;1016;48.770;9.154;2023-06-22T08:44:37;29.70;;;7.00;;
2023;SDS011;1016;48.770;9.154;2023-06-22T08:47:03;28.58;;;6.60;;
2023;SDS011;1016;48.770;9.154;2023-06-22T08:49:28;27.88;;;6.50;;
2023;SDS011;1016;48.770;9.154;2023-06-22T08:51:54;28.87;;;6.50;;
2023;SDS011;1016;48.770;9.154;2023-06-22T08:54:21;27.75;;;6.70;;
2023;SDS011;1016;48.770;9.154;2023-06-22T08:56:47;28.67;;;6.90;;
2023;SDS011;1016;48.770;9.154;2023-06-22T08:59:13;28.60;;;6.37;;
2023;SDS011;1016;48.770;9.154;2023-06-22T09:01:38;28.10;;;6.50;;
2023;SDS011;1016;48.770;9.154;2023-06-22T09:04:04;29.88;;;7.30;;
2023;SDS011;1016;48.770;9.154;2023-06-22T09:06:31;29.15;;;7.43;;
2023;SDS011;1016;48.770;9.154;2023-06-22T09:08:57;29.60;;;7.30;;
2023;SDS011;1016;48.770;9.154;2023-06-22T09:11:24;27.25;;;6.97;;
2023;SDS011;1016;48.770;9.154;2023-06-22T09:13:50;28.40;;;6.80;;
2023;SDS011;1016;48.770;9.154;2023-06-22T09:16:17;30.60;;;6.60;;
2023;SDS011;1016;48.770;9.154;2023-06-22T09:18:42;29.13;;;7.20;;
2023;SDS011;1016;48.770;9.154;2023-06-22T09:21:11;29.40;;;7.10;;
2023;SDS011;1016;48.770;9.154;2023-06-22T09:23:37;27.93;;;7.30;;
2023;SDS011;1016;48.770;9.154;2023-06-22T09:26:02;29.67;;;6.90;;
2023;SDS011;1016;48.770;9.154;2023-06-22T09:28:29;28.77;;;6.70;;
2023;SDS011;1016;48.770;9.154;2023-06-22T09:30:54;30.27;;;7.60;;
2023;SDS011;1016;48.770;9.154;2023-06-22T09:33:23;29.20;;;7.20;;
2023;SDS011;1016;48.770;9.154;2023-06-22T09:35:49;27.40;;;6.93;;
2023;SDS011;1016;48.770;9.154;2023-06-22T09:38:15;29.55;;;7.40;;
2023;SDS011;1016;48.770;9.154;2023-06-22T09:40:41;29.53;;;6.90;;
2023;SDS011;1016;48.770;9.154;2023-06-22T09:43:07;26.92;;;7.15;;
2023;SDS011;1016;48.770;9.154;2023-06-22T09:45:32;27.77;;;6.77;;
2023;SDS011;1016;48.770;9.154;2023-06-22T09:47:58;29.23;;;7.40;;
2023;SDS011;1016;48.770;9.154;2023-06-22T09:50:23;28.33;;;7.67;;
2023;SDS011;1016;48.770;9.154;2023-06-22T09:52:49;28.17;;;7.30;;
2023;SDS011;1016;48.770;9.154;2023-06-22T09:55:19;30.23;;;7.80;;
2023;SDS011;1016;48.770;9.154;2023-06-22T09:57:45;28.20;;;6.82;;
2023;SDS011;1016;48.770;9.154;2023-06-22T10:00:11;28.23;;;7.70;;
2023;SDS011;1016;48.770;9.154;2023-06-22T10:02:43;27.40;;;7.03;;
2023;SDS011;1016;48.770;9.154;2023-06-22T10:05:09;28.70;;;6.80;;
2023;SDS011;1016;48.770;9.154;2023-06-22T10:07:35;31.47;;;7.50;;
2023;SDS011;1016;48.770;9.154;2023-06-22T10:10:05;28.63;;;6.53;;
2023;SDS011;1016;48.770;9.154;2023-06-22T10:12:31;28.07;;;6.53;;
2023;SDS011;1016;48.770;9.154;2023-06-22T10:14:57;28.87;;;7.70;;
2023;SDS011;1016;48.770;9.154;2023-06-22T10:17:22;33.90;;;8.60;;
2023;SDS011;1016;48.770;9.154;2023-06-22T10:19:48;31.30;;;6.83;;
2023;SDS011;1016;48.770;9.154;2023-06-22T10:22:13;28.30;;;6.80;;
2023;SDS011;1016;48.770;9.154;2023-06-22T10:24:39;29.07;;;7.57;;
2023;SDS011;1016;48.770;9.154;2023-06-22T10:27:09;27.50;;;6.67;;
2023;SDS011;1016;48.770;9.154;2023-06-22T10:29:35;27.07;;;7.30;;
2023;SDS011;1016;48.770;9.154;2023-06-22T10:32:01;31.00;;;7.37;;
2023;SDS011;1016;48.770;9.154;2023-06-22T10:34:27;28.90;;;8.40;;
2023;SDS011;1016;48.770;9.154;2023-06-22T10:36:52;28.87;;;7.53;;
2023;SDS011;1016;48.770;9.154;2023-06-22T10:39:18;34.13;;;7.57;;
2023;SDS011;1016;48.770;9.154;2023-06-22T10:41:43;28.40;;;6.77;;
2023;SDS011;1016;48.770;9.154;2023-06-22T10:44:09;29.20;;;8.93;;
2023;SDS011;1016;48.770;9.154;2023-06-22T10:46:35;27.93;;;8.13;;
2023;SDS011;1016;48.770;9.154;2023-06-22T10:49:01;30.30;;;7.80;;
2023;SDS011;1016;48.770;9.154;2023-06-22T10:51:26;33.10;;;7.63;;
2023;SDS011;1016;48.770;9.154;2023-06-22T10:53:53;26.80;;;6.50;;
2023;SDS011;1016;48.770;9.154;2023-06-22T10:56:18;27.90;;;7.13;;
2023;SDS011;1016;48.770;9.154;2023-06-22T10:58:44;28.17;;;7.43;;
2023;SDS011;1016;48.770;9.154;2023-06-22T11:01:10;29.27;;;7.90;;
2023;SDS011;1016;48.770;9.154;2023-06-22T11:03:36;28.20;;;7.10;;
2023;SDS011;1016;48.770;9.154;2023-06-22T11:06:02;29.53;;;7.83;;
2023;SDS011;1016;48.770;9.154;2023-06-22T11:08:27;26.80;;;6.90;;
2023;SDS011;1016;48.770;9.154;2023-06-22T11:10:53;30.40;;;7.10;;
2023;SDS011;1016;48.770;9.154;2023-06-22T11:13:18;29.67;;;7.47;;
2023;SDS011;1016;48.770;9.154;2023-06-22T11:15:44;27.40;;;7.17;;
2023;SDS011;1016;48.770;9.154;2023-06-22T11:18:09;29.10;;;7.07;;
2023;SDS011;1016;48.770;9.154;2023-06-22T11:20:35;29.83;;;7.60;;
2023;SDS011;1016;48.770;9.154;2023-06-22T11:23:05;30.23;;;6.97;;
2023;SDS011;1016;48.770;9.154;2023-06-22T11:25:33;31.53;;;7.17;;
2023;SDS011;1016;48.770;9.154;2023-06-22T11:28:03;29.90;;;7.37;;
2023;SDS011;1016;48.770;9.154;2023-06-22T11:30:29;31.50;;;7.53;;
2023;SDS011;1016;48.770;9.154;2023-06-22T11:32:58;35.40;;;7.33;;
2023;SDS011;1016;48.770;9.154;2023-06-22T11:35:25;28.17;;;6.40;;
2023;SDS011;1016;48.770;9.154;2023-06-22T11:37:50;32.20;;;7.50;;
2023;SDS011;1016;48.770;9.154;2023-06-22T11:40:16;30.17;;;7.50;;
2023;SDS011;1016;48.770;9.154;2023-06-22T11:42:42;30.03;;;6.60;;
2023;SDS011;1016;48.770;9.154;2023-06-22T11:45:08;29.97;;;7.30;;
2023;SDS011;1016;48.770;9.154;2023-06-22T11:47:34;28.83;;;6.50;;
2023;SDS011;1016;48.770;9.154;2023-06-22T11:49:59;29.63;;;7.47;;
2023;SDS011;1016;48.770;9.154;2023-06-22T11:52:25;29.43;;;6.83;;
2023;SDS011;1016;48.770;9.154;2023-06-22T11:54:52;32.17;;;7.90;;
2023;SDS011;1016;48.770;9.154;2023-06-22T11:57:17;28.97;;;8.33;;
2023;SDS011;1016;48.770;9.154;2023-06-22T11:59:43;29.93;;;7.00;;
2023;SDS011;1016;48.770;9.154;2023-06-22T12:02:08;35.43;;;9.27;;
2023;SDS011;1016;48.770;9.154;2023-06-22T12:04:34;32.90;;;8.90;;
2023;SDS011;1016;48.770;9.154;2023-06-22T12:07:00;29.93;;;8.17;;
2023;SDS011;1016;48.770;9.154;2023-06-22T12:09:25;31.87;;;8.10;;
2023;SDS011;1016;48.770;9.154;2023-06-22T12:11:51;33.25;;;9.38;;
2023;SDS011;1016;48.770;9.154;2023-06-22T12:14:16;33.03;;;9.27;;
2023;SDS011;1016;48.770;9.154;2023-06-22T12:16:42;30.47;;;8.07;;
2023;SDS011;1016;48.770;9.154;2023-06-22T12:19:09;30.20;;;8.13;;
2023;SDS011;1016;48.770;9.154;2023-06-22T12:21:34;31.65;;;8.60;;
2023;SDS011;1016;48.770;9.154;2023-06-22T12:24:00;32.08;;;9.05;;
2023;SDS011;1016;48.770;9.154;2023-06-22T12:26:25;29.70;;;7.65;;
2023;SDS011;1016;48.770;9.154;2023-06-22T12:28:51;32.53;;;8.00;;
2023;SDS011;1016;48.770;9.154;2023-06-22T12:31:17;33.17;;;8.63;;
2023;SDS011;1016;48.770;9.154;2023-06-22T12:33:42;30.00;;;7.88;;
2023;SDS011;1016;48.770;9.154;2023-06-22T12:36:08;31.23;;;7.40;;
2023;SDS011;1016;48.770;9.154;2023-06-22T12:38:33;29.60;;;7.60;;
2023;SDS011;1016;48.770;9.154;2023-06-22T12:40:59;30.53;;;7.73;;
2023;SDS011;1016;48.770;9.154;2023-06-22T12:43:24;30.30;;;7.57;;
2023;SDS011;1016;48.770;9.154;2023-06-22T12:45:50;30.75;;;7.40;;
2023;SDS011;1016;48.770;9.154;2023-06-22T12:48:15;29.45;;;8.15;;
2023;SDS011;1016;48.770;9.154;2023-06-22T12:50:41;29.10;;;7.80;;
2023;SDS011;1016;48.770;9.154;2023-06-22T12:53:07;30.05;;;7.90;;
2023;SDS011;1016;48.770;9.154;2023-06-22T12:55:33;31.45;;;7.70;;
2023;SDS011;1016;48.770;9.154;2023-06-22T12:57:58;31.00;;;8.00;;
2023;SDS011;1016;48.770;9.154;2023-06-22T13:00:24;31.50;;;7.83;;
2023;SDS011;1016;48.770;9.154;2023-06-22T13:02:49;32.53;;;7.90;;
2023;SDS011;1016;48.770;9.154;2023-06-22T16:23:39;27.40;;;4.33;;
2023;SDS011;1016;48.770;9.154;2023-06-22T16:26:05;29.17;;;4.53;;
2023;SDS011;1016;48.770;9.154;2023-06-22T16:28:30;26.97;;;3.90;;
2023;SDS011;1016;48.770;9.154;2023-06-22T16:30:56;29.93;;;4.13;;
2023;SDS011;1016;48.770;9.154;2023-06-22T16:33:21;27.27;;;4.30;;
2023;SDS011;1016;48.770;9.154;2023-06-22T16:35:47;26.87;;;4.57;;
2023;SDS011;1016;48.770;9.154;2023-06-22T16:38:13;27.80;;;4.23;;
2023;SDS011;1016;48.770;9.154;2023-06-22T16:40:38;27.30;;;4.20;;
2023;SDS011;1016;48.770;9.154;2023-06-22T16:43:04;27.93;;;4.30;;
2023;SDS011;1016;48.770;9.154;2023-06-22T16:45:29;27.43;;;4.57;;
2023;SDS011;1016;48.770;9.154;2023-06-22T16:47:57;25.17;;;3.70;;
2023;SDS011;1016;48.770;9.154;2023-06-22T16:50:23;27.85;;;4.30;;
2023;SDS011;1016;48.770;9.154;2023-06-22T16:52:48;30.27;;;4.60;;
2023;SDS011;1016;48.770;9.154;2023-06-22T16:55:14;26.40;;;4.40;;
2023;SDS011;1016;48.770;9.154;2023-06-22T16:57:40;24.30;;;4.00;;
2023;SDS011;1016;48.770;9.154;2023-06-22T17:00:07;24.33;;;4.27;;
2023;SDS011;1016;48.770;9.154;2023-06-22T17:02:34;28.20;;;4.23;;
2023;SDS011;1016;48.770;9.154;2023-06-22T17:05:03;25.60;;;4.00;;
2023;SDS011;1016;48.770;9.154;2023-06-22T17:07:29;27.00;;;3.90;;
2023;SDS011;1016;48.770;9.154;2023-06-22T17:09:59;28.60;;;4.20;;
2023;SDS011;1016;48.770;9.154;2023-06-22T17:12:25;30.10;;;4.33;;
2023;SDS011;1016;48.770;9.154;2023-06-22T17:14:51;27.77;;;4.63;;
2023;SDS011;1016;48.770;9.154;2023-06-22T17:19:43;27.67;;;4.40;;
2023;SDS011;1016;48.770;9.154;2023-06-22T17:22:10;26.87;;;4.50;;
2023;SDS011;1016;48.770;9.154;2023-06-22T17:24:36;26.50;;;4.20;;
2023;SDS011;1016;48.770;9.154;2023-06-22T17:27:02;32.63;;;4.47;;
2023;SDS011;1016;48.770;9.154;2023-06-22T17:29:30;32.80;;;4.70;;
